Airfield :
LOGIN :

Register | Disclaimer

   EN    FR    IT 

 










Legend :    VFR   Marginal VFR   IFR   Intensive IFR   Very Intensive IFR
Visi :
Ceiling :
>= 8 km
>= 3000ft
5 to 8 km
1000 to 3000 ft
1500m to 5 km
500 to 1000 ft
800 to 1500m
200 to 500 ft
< 800m
< 200 ft
Symbols :   Thunderstorms  Fog  Heavy snow  Heavy precipitations  Wind > 20 kt
SIGMETs :     Misc.  Thunderstorms  Icing  Turbulence  Mountain Waves  Volcanic Ashes







- Airport Elevation : 76 ft
- IATA code : KID


ESMK - Kristianstad

CURRENT METAR :
  • 201420Z 29009KT 260V320 CAVOK 26/11 Q1011

EXPIRED METARs :
  • 201350Z 30010KT CAVOK 26/12 Q1011
  • 201320Z 30010KT 250V320 CAVOK 27/12 Q1011
  • 201250Z 31007KT 260V340 CAVOK 26/12 Q1011
  • 201220Z 29009KT 250V340 CAVOK 26/12 Q1011
  • 201150Z 29008KT 270V330 CAVOK 25/12 Q1012

TAF TAF ESMK
Valid from the 20 at 12:00 until the 20 at 16:00 UTC


201054Z 2012/2016 30012KT CAVOK
No reported NOTAMs for that airfield.
3 SIGMETs reported for the Sweden FIR (ESAA) :
 
SIGMET 1  cancelation
ESAA SIGMET 3 VALID 201316/201450 ESSA
ESAA SWEDEN FIR CNL SIGMET 1 201250/201450=
Frequent thunderstorms
ESAA SIGMET 2 VALID 201315/201450 ESSA
ESAA SWEDEN FIR FRQ TS OBS AT 1315Z WI N6029 E01437 - N5926 E01615 - N5900 E01526 - N6001 E01408 - N6029 E01437 TOP FL350 MOV ESE 15KT NC=
SIGMET 1  CANCELED :
Frequent thunderstorms
ESAA SIGMET 1 VALID 201250/201450 ESSA
ESAA SWEDEN FIR FRQ TS OBS AT 1250Z WI N6029 E1437 - N5926 E01615 - N5900 E01526 - N6001 E01408 - N6029 E01437 TOP FL350 MOV ESE 15 KT NC=



MET'MAP, your aeronautical weather chart ! - Copyright ORBIFLY December 2007 - Disclaimer

ORBIFLY MET'MAP TEAM :

Programming & Development : Alexandra Zaïnal
Concept & Development : Baudouin d'Aumeries
Co-Development & Prog : Marc-Olivier Méhu
Technical & hardware support : Manuel Goepfert

Contact : metmap@orbifly.com




SOURCES & CREDITS :

   NOAA